地図

経路データ

SID SEASON NUMBER BASIN SUBBASIN NAME ISO_TIME NATURE LAT LON WMO_WIND WMO_PRES WMO_AGENCY TRACK_TYPE DIST2LAND LANDFALL IFLAG USA_AGENCY USA_ATCF_ID USA_LAT USA_LON USA_RECORD USA_STATUS USA_WIND USA_PRES USA_SSHS USA_R34_NE USA_R34_SE USA_R34_SW USA_R34_NW USA_R50_NE USA_R50_SE USA_R50_SW USA_R50_NW USA_R64_NE USA_R64_SE USA_R64_SW USA_R64_NW USA_POCI USA_ROCI USA_RMW USA_EYE TOKYO_LAT TOKYO_LON TOKYO_GRADE TOKYO_WIND TOKYO_PRES TOKYO_R50_DIR TOKYO_R50_LONG TOKYO_R50_SHORT TOKYO_R30_DIR TOKYO_R30_LONG TOKYO_R30_SHORT TOKYO_LAND CMA_LAT CMA_LON CMA_CAT CMA_WIND CMA_PRES HKO_LAT HKO_LON HKO_CAT HKO_WIND HKO_PRES NEWDELHI_LAT NEWDELHI_LON NEWDELHI_GRADE NEWDELHI_WIND NEWDELHI_PRES NEWDELHI_CI NEWDELHI_DP NEWDELHI_POCI REUNION_LAT REUNION_LON REUNION_TYPE REUNION_WIND REUNION_PRES REUNION_TNUM REUNION_CI REUNION_RMW REUNION_R34_NE REUNION_R34_SE REUNION_R34_SW REUNION_R34_NW REUNION_R50_NE REUNION_R50_SE REUNION_R50_SW REUNION_R50_NW REUNION_R64_NE REUNION_R64_SE REUNION_R64_SW REUNION_R64_NW BOM_LAT BOM_LON BOM_TYPE BOM_WIND BOM_PRES BOM_TNUM BOM_CI BOM_RMW BOM_R34_NE BOM_R34_SE BOM_R34_SW BOM_R34_NW BOM_R50_NE BOM_R50_SE BOM_R50_SW BOM_R50_NW BOM_R64_NE BOM_R64_SE BOM_R64_SW BOM_R64_NW BOM_ROCI BOM_POCI BOM_EYE BOM_POS_METHOD BOM_PRES_METHOD NADI_LAT NADI_LON NADI_CAT NADI_WIND NADI_PRES WELLINGTON_LAT WELLINGTON_LON WELLINGTON_WIND WELLINGTON_PRES DS824_LAT DS824_LON DS824_STAGE DS824_WIND DS824_PRES TD9636_LAT TD9636_LON TD9636_STAGE TD9636_WIND TD9636_PRES TD9635_LAT TD9635_LON TD9635_WIND TD9635_PRES TD9635_ROCI NEUMANN_LAT NEUMANN_LON NEUMANN_CLASS NEUMANN_WIND NEUMANN_PRES MLC_LAT MLC_LON MLC_CLASS MLC_WIND MLC_PRES USA_GUST BOM_GUST BOM_GUST_PER REUNION_GUST REUNION_GUST_PER USA_SEAHGT USA_SEARAD_NE USA_SEARAD_SE USA_SEARAD_SW USA_SEARAD_NW STORM_SPEED STORM_DIR
1968240N27273 1968 78 NA GM NOT_NAMED 1968-08-26 12:00:00 TS 26.6000 -87.0000 25 hurdat_atl main 338 329 O_____________ hurdat_atl AL061968 26.6000 -87.0000 TD 25 -1 3 0
1968240N27273 1968 78 NA GM NOT_NAMED 1968-08-26 15:00:00 TS 26.7500 -86.9901 main 320 312 P_____________ AL061968 26.7500 -86.9901 TD 25 -1 3 0
1968240N27273 1968 78 NA GM NOT_NAMED 1968-08-26 18:00:00 TS 26.9000 -87.0000 25 hurdat_atl main 312 303 O_____________ hurdat_atl AL061968 26.9000 -87.0000 TD 25 -1 3 355
1968240N27273 1968 78 NA GM NOT_NAMED 1968-08-26 21:00:00 TS 27.0500 -87.0299 main 303 287 P_____________ AL061968 27.0500 -87.0299 TD 25 -1 3 0
1968240N27273 1968 78 NA GM NOT_NAMED 1968-08-27 00:00:00 TS 27.2000 -87.0000 25 hurdat_atl main 287 279 O_____________ hurdat_atl AL061968 27.2000 -87.0000 TD 25 -1 3 29
1968240N27273 1968 78 NA GM NOT_NAMED 1968-08-27 03:00:00 TS 27.3500 -86.8450 main 294 272 P_____________ AL061968 27.3500 -86.8450 TD 25 -1 5 50
1968240N27273 1968 78 NA GM NOT_NAMED 1968-08-27 06:00:00 TS 27.5000 -86.6000 25 hurdat_atl main 272 253 O_____________ hurdat_atl AL061968 27.5000 -86.6000 TD 25 -1 5 57
1968240N27273 1968 78 NA GM NOT_NAMED 1968-08-27 09:00:00 TS 27.6423 -86.3448 main 250 219 P_____________ AL061968 27.6423 -86.3448 TD 25 -1 6 60
1968240N27273 1968 78 NA GM NOT_NAMED 1968-08-27 12:00:00 TS 27.8000 -86.0000 25 hurdat_atl main 219 190 O_____________ hurdat_atl AL061968 27.8000 -86.0000 TD 25 -1 8 64
1968240N27273 1968 78 NA GM NOT_NAMED 1968-08-27 15:00:00 TS 28.0003 -85.5152 main 190 167 P_____________ AL061968 28.0003 -85.5152 TD 25 -1 10 66
1968240N27273 1968 78 NA GM NOT_NAMED 1968-08-27 18:00:00 TS 28.2000 -85.0000 25 hurdat_atl main 167 148 O_____________ hurdat_atl AL061968 28.2000 -85.0000 TD 25 -1 9 66
1968240N27273 1968 78 NA GM NOT_NAMED 1968-08-27 21:00:00 TS 28.3648 -84.5773 main 148 132 P_____________ AL061968 28.3648 -84.5773 TD 25 -1 8 67
1968240N27273 1968 78 NA GM NOT_NAMED 1968-08-28 00:00:00 TS 28.5000 -84.2000 25 hurdat_atl main 132 95 O_____________ hurdat_atl AL061968 28.5000 -84.2000 TD 25 -1 7 69
1968240N27273 1968 78 NA GM NOT_NAMED 1968-08-28 03:00:00 TS 28.6150 -83.8199 main 95 68 P_____________ AL061968 28.6150 -83.8199 TD 25 -1 6 72
1968240N27273 1968 78 NA GM NOT_NAMED 1968-08-28 06:00:00 TS 28.7000 -83.5000 25 hurdat_atl main 68 48 O_____________ hurdat_atl AL061968 28.7000 -83.5000 TD 25 -1 5 73
1968240N27273 1968 78 NA GM NOT_NAMED 1968-08-28 09:00:00 TS 28.7649 -83.2624 main 48 36 P_____________ AL061968 28.7649 -83.2624 TD 25 -1 4 74
1968240N27273 1968 78 NA GM NOT_NAMED 1968-08-28 12:00:00 TS 28.8000 -83.1000 25 hurdat_atl main 36 29 O_____________ hurdat_atl AL061968 28.8000 -83.1000 TD 25 -1 3 81
1968240N27273 1968 78 NA GM NOT_NAMED 1968-08-28 15:00:00 TS 28.8075 -82.9700 main 29 24 P_____________ AL061968 28.8075 -82.9700 TD 25 -1 2 90
1968240N27273 1968 78 NA GM NOT_NAMED 1968-08-28 18:00:00 TS 28.8000 -82.9000 25 hurdat_atl main 24 24 O_____________ hurdat_atl AL061968 28.8000 -82.9000 TD 25 -1 1 90
1968240N27273 1968 78 NA GM NOT_NAMED 1968-08-28 21:00:00 TS 28.8075 -82.8775 main 24 24 P_____________ AL061968 28.8075 -82.8775 TD 25 -1 0 0
1968240N27273 1968 78 NA GM NOT_NAMED 1968-08-29 00:00:00 TS 28.8000 -82.9000 25 hurdat_atl main 24 24 O_____________ hurdat_atl AL061968 28.8000 -82.9000 TD 25 -1 1 238
1968240N27273 1968 78 NA GM NOT_NAMED 1968-08-29 03:00:00 TS 28.7650 -82.9575 main 29 29 P_____________ AL061968 28.7650 -82.9575 TD 25 -1 1 220
1968240N27273 1968 78 NA GM NOT_NAMED 1968-08-29 06:00:00 TS 28.7000 -83.0000 25 hurdat_atl main 38 38 O_____________ hurdat_atl AL061968 28.7000 -83.0000 TD 25 -1 2 0
1968240N27273 1968 78 NA GM NOT_NAMED 1968-08-29 09:00:00 TS 28.6150 -82.9800 main 39 29 P_____________ AL061968 28.6150 -82.9800 TD 25 -1 2 155
1968240N27273 1968 78 NA GM NOT_NAMED 1968-08-29 12:00:00 TS 28.5000 -82.9000 25 hurdat_atl main 29 14 O_____________ hurdat_atl AL061968 28.5000 -82.9000 TD 25 -1 3 145
1968240N27273 1968 78 NA GM NOT_NAMED 1968-08-29 15:00:00 TS 28.3575 -82.7725 main 14 0 P_____________ AL061968 28.3575 -82.7725 TD 25 -1 4 139
1968240N27273 1968 78 NA NA NOT_NAMED 1968-08-29 18:00:00 TS 28.2000 -82.6000 25 hurdat_atl main 0 0 O_____________ hurdat_atl AL061968 28.2000 -82.6000 TD 25 -1 5 134
1968240N27273 1968 78 NA NA NOT_NAMED 1968-08-29 21:00:00 TS 28.0351 -82.3924 main 0 0 P_____________ AL061968 28.0351 -82.3924 TD 25 -1 5 130
1968240N27273 1968 78 NA NA NOT_NAMED 1968-08-30 00:00:00 TS 27.9000 -82.2000 25 hurdat_atl main 0 0 O_____________ hurdat_atl AL061968 27.9000 -82.2000 TD 25 -1 4 127
1968240N27273 1968 78 NA NA NOT_NAMED 1968-08-30 03:00:00 TS 27.8200 -82.0701 main 0 0 P_____________ AL061968 27.8200 -82.0701 TD 25 -1 2 120
1968240N27273 1968 78 NA NA NOT_NAMED 1968-08-30 06:00:00 TS 27.8000 -82.0000 25 hurdat_atl main 0 0 O_____________ hurdat_atl AL061968 27.8000 -82.0000 TD 25 -1 1 90
1968240N27273 1968 78 NA NA NOT_NAMED 1968-08-30 09:00:00 TS 27.8200 -81.9850 main 0 0 P_____________ AL061968 27.8200 -81.9850 TD 25 -1 1 0
1968240N27273 1968 78 NA NA NOT_NAMED 1968-08-30 12:00:00 TS 27.9000 -82.0000 25 hurdat_atl main 0 0 O_____________ hurdat_atl AL061968 27.9000 -82.0000 TD 25 -1 2 353
1968240N27273 1968 78 NA NA NOT_NAMED 1968-08-30 15:00:00 TS 28.0350 -82.0075 main 0 0 P_____________ AL061968 28.0350 -82.0075 TD 25 -1 3 0
1968240N27273 1968 78 NA NA NOT_NAMED 1968-08-30 18:00:00 TS 28.2000 -82.0000 25 hurdat_atl main 0 0 O_____________ hurdat_atl AL061968 28.2000 -82.0000 TD 25 -1 3 5
1968240N27273 1968 78 NA NA NOT_NAMED 1968-08-30 21:00:00 TS 28.3350 -81.9650 main 0 0 P_____________ AL061968 28.3350 -81.9650 TD 25 -1 3 16
1968240N27273 1968 78 NA NA NOT_NAMED 1968-08-31 00:00:00 TS 28.5000 -81.9000 25 hurdat_atl main 0 0 O_____________ hurdat_atl AL061968 28.5000 -81.9000 TD 25 -1 4 19
1968240N27273 1968 78 NA NA NOT_NAMED 1968-08-31 03:00:00 TS 28.7425 -81.8076 main 0 0 P_____________ AL061968 28.7425 -81.8076 TD 25 -1 5 20
1968240N27273 1968 78 NA NA NOT_NAMED 1968-08-31 06:00:00 TS 29.0000 -81.7000 25 hurdat_atl main 0 0 O_____________ hurdat_atl AL061968 29.0000 -81.7000 TD 25 -1 5 21
1968240N27273 1968 78 NA NA NOT_NAMED 1968-08-31 09:00:00 TS 29.2150 -81.6000 main 0 0 P_____________ AL061968 29.2150 -81.6000 TD 25 -1 4 23
1968240N27273 1968 78 NA NA NOT_NAMED 1968-08-31 12:00:00 TS 29.4000 -81.5000 25 hurdat_atl main 0 0 O_____________ hurdat_atl AL061968 29.4000 -81.5000 TD 25 -1 4 27
1968240N27273 1968 78 NA NA NOT_NAMED 1968-08-31 15:00:00 TS 29.5575 -81.4001 main 0 0 P_____________ AL061968 29.5575 -81.4001 TD 25 -1 3 30
1968240N27273 1968 78 NA NA NOT_NAMED 1968-08-31 18:00:00 TS 29.7000 -81.3000 25 hurdat_atl main 0 O_____________ hurdat_atl AL061968 29.7000 -81.3000 TD 25 -1 3 32

IBTrACS Databaseについて

本データベースは、米国NOAAが公開する1842年以降の世界の熱帯低気圧のベストトラックデータアーカイブInternational Best Track Archive for Climate Stewardship (IBTrACS)を、ウェブで閲覧しやすい形式に変換したものです。

最終更新日:2022-05-26